X  Close Metar Aviation Weather Data     KBWI Baltimore/Washington International Thurgood Marshall Airport
Temperature
81°F Temperature
61°F Dewpoint
51% Humidity



Wind
7 MPH
11 KM/H
3 M/S
6 KTS



320°
Current Conditions

Partly Cloudy Partly Cloudy
Pressure 1015.22 (hPa) - 29.98 (inHg)
Visibility 10 (mile) - 16.1 (km)
Airport
Airport-code KBWI

Location: Baltimore/Washington International Thurgood Marshall Airport
Distance: 6 (mi)

Metar:
KBWI 272254Z 32006KT 10SM FEW041 FEW130 SCT160 SCT250 27/16 A2998 RMK AO2 SLP150 T02720161

Time: 27-06-2022 18:54 EDT